Weather at Barbil Aerodrome (JSPL)

Public forecast

Using degrees Celsius for public forecast. Weather courtesy of forecast.io.

Closest aviation weather report (METAR) to Barbil Aerodrome (JSPL)

Report is more than 2 hours old.

Closest report is Sonari Airport, 63.7 nm (117.9 km) NE. Retrieved 2021/01/27 12:00 UTC (3 hours ago):

VEJS 271200Z 09003KT 2000 FU NSC 23/08 Q1013

Closest aviation forecast (TAF) to Barbil Aerodrome (JSPL)

Forecast is more than 12 hours old.

Closest forecast is Sonari Airport, 63.7 nm (117.9 km) NE. Retrieved 2009/11/01 09:00 UTC (11 years ago):

TAF VEJS 010900Z 0112/0121 36004KT 2500 HZ FEW020 SCT025 SCT100 BECMG 0116/0118 00000KT 2000 HZ FEW018 SCT BECMG 0119/0121 00000KT 1600 BR